Pauma Valley, California
Current Conditions -  °F | °C
As of 2:15 PM on Sunday 23 Nov 2014 (Local Time) from KL18 Reporting Station
Clear Clear  
Wind Chill: 79°   Ceiling: Unl
Heat Index: 79°   Visibility: 10mi
Dew Point: 14°   Wind: 10mph
Humidity: 9%   Direction: 360°N
Pressure: 30.05"   Gusts: 16mph
Location:  33.3°N, 116.98°W
Report Text: KL18 232215Z AUTO 36009G14KT 340V040 10SM CLR 26/M10 A3005 RMK AO2
Loading
Personal Weather Stations






























Interactive Weather Map New forecast layout! Learn more

10-Day Weather Forecast

Advertisements
Track Severe Weather on mobile